createdAt,value
2018-11-12T00:02:24.873Z,75.44
2018-11-12T00:05:29.007Z,75.17
2018-11-12T00:08:32.560Z,75.51
2018-11-12T00:11:36.035Z,75.44
2018-11-12T00:14:39.562Z,75.58
2018-11-12T00:17:43.209Z,75.68
2018-11-12T00:20:46.758Z,75.33
2018-11-12T00:23:50.315Z,75.21
2018-11-12T00:26:53.969Z,75.41
2018-11-12T00:29:57.498Z,75.09
2018-11-12T00:33:01.064Z,75.04
2018-11-12T00:36:06.592Z,75.39
2018-11-12T00:39:11.620Z,75.73
2018-11-12T00:42:15.063Z,76.04
2018-11-12T00:45:18.558Z,75.83
2018-11-12T00:48:22.093Z,76.38
2018-11-12T00:51:25.646Z,76.60
2018-11-12T00:54:29.182Z,76.85
2018-11-12T00:57:32.861Z,76.73
2018-11-12T01:00:36.378Z,76.98
2018-11-12T01:03:39.881Z,76.87
2018-11-12T01:06:43.386Z,76.94
2018-11-12T01:09:46.901Z,76.92
2018-11-12T01:12:50.422Z,76.76
2018-11-12T01:15:54.017Z,77.01
2018-11-12T01:18:58.511Z,76.93
2018-11-12T01:22:02.028Z,76.41
2018-11-12T01:25:06.466Z,76.19
2018-11-12T01:28:09.983Z,76.56
2018-11-12T01:31:13.438Z,76.35
2018-11-12T01:34:16.901Z,76.20
2018-11-12T01:37:20.427Z,76.42
2018-11-12T01:40:24.888Z,76.37
2018-11-12T01:43:28.465Z,76.42
2018-11-12T01:46:31.897Z,76.36
2018-11-12T01:49:35.409Z,76.25
2018-11-12T01:52:38.910Z,76.23
2018-11-12T01:55:43.595Z,76.11
2018-11-12T01:58:47.309Z,76.01
2018-11-12T02:01:50.899Z,75.59
2018-11-12T02:04:54.431Z,75.32
2018-11-12T02:07:58.944Z,75.65
2018-11-12T02:11:02.403Z,75.00
2018-11-12T02:14:06.996Z,74.54
2018-11-12T02:17:10.517Z,74.36
2018-11-12T02:20:15.279Z,74.85
2018-11-12T02:23:18.861Z,74.71
2018-11-12T02:26:22.721Z,74.90
2018-11-12T02:29:26.232Z,74.78
2018-11-12T02:32:29.848Z,74.51
2018-11-12T02:35:33.364Z,74.32
2018-11-12T02:38:36.904Z,74.58
2018-11-12T02:41:41.584Z,74.79
2018-11-12T02:44:45.038Z,74.72
2018-11-12T02:47:48.603Z,74.25
2018-11-12T02:50:53.251Z,74.18
2018-11-12T02:53:56.760Z,73.91
2018-11-12T02:57:00.242Z,73.86
2018-11-12T03:00:04.662Z,73.84
2018-11-12T03:03:08.196Z,73.59
2018-11-12T03:06:11.743Z,73.63
2018-11-12T03:09:15.288Z,73.75
2018-11-12T03:12:18.790Z,73.66
2018-11-12T03:15:22.552Z,73.49
2018-11-12T03:18:26.294Z,73.42
2018-11-12T03:21:29.828Z,73.36
2018-11-12T03:24:34.335Z,73.87
2018-11-12T03:27:37.988Z,73.92
2018-11-12T03:30:41.353Z,73.30
2018-11-12T03:33:45.020Z,73.27
2018-11-12T03:36:48.620Z,73.50
2018-11-12T03:39:52.128Z,73.37
2018-11-12T03:42:55.575Z,73.65
2018-11-12T03:45:59.069Z,73.57
2018-11-12T03:49:02.620Z,73.54
2018-11-12T03:52:06.362Z,73.57
2018-11-12T03:55:11.758Z,73.45
2018-11-12T03:58:15.201Z,73.36
2018-11-12T04:01:18.659Z,73.83
2018-11-12T04:04:22.145Z,73.69
2018-11-12T04:07:26.695Z,73.50
2018-11-12T04:10:30.484Z,72.85
2018-11-12T04:13:33.980Z,72.84
2018-11-12T04:16:37.602Z,73.13
2018-11-12T04:19:41.105Z,73.25
2018-11-12T04:22:49.908Z,73.50
2018-11-12T04:25:53.453Z,73.69
2018-11-12T04:28:56.917Z,73.15
2018-11-12T04:32:00.591Z,73.00
2018-11-12T04:35:04.186Z,73.04
2018-11-12T04:38:07.627Z,73.35
2018-11-12T04:41:11.305Z,73.37
2018-11-12T04:44:14.910Z,73.29
2018-11-12T04:47:18.364Z,73.48
2018-11-12T04:50:23.124Z,73.99
2018-11-12T04:53:27.148Z,73.77
2018-11-12T04:56:30.629Z,73.93
2018-11-12T04:59:34.111Z,74.19
2018-11-12T05:02:37.735Z,73.87
2018-11-12T05:05:41.222Z,73.64
2018-11-12T05:08:44.872Z,73.26
2018-11-12T05:11:48.396Z,72.80
2018-11-12T05:14:51.894Z,72.47
2018-11-12T05:17:55.445Z,72.31
2018-11-12T05:20:59.208Z,72.06
2018-11-12T05:24:02.807Z,72.11
2018-11-12T05:27:06.242Z,71.95
2018-11-12T05:30:18.124Z,71.97
2018-11-12T05:33:21.669Z,71.62
2018-11-12T05:36:25.225Z,71.62
2018-11-12T05:39:28.721Z,70.98
2018-11-12T05:42:32.433Z,70.55
2018-11-12T05:45:36.900Z,70.17
2018-11-12T05:48:40.465Z,69.89
2018-11-12T05:51:43.963Z,70.01
2018-11-12T05:54:47.606Z,69.96
2018-11-12T05:57:51.176Z,70.23
2018-11-12T06:00:54.722Z,70.23
2018-11-12T06:03:58.227Z,70.29
2018-11-12T06:07:01.889Z,70.65
2018-11-12T06:10:08.032Z,70.58
2018-11-12T06:13:11.550Z,71.19
2018-11-12T06:16:15.068Z,71.23
2018-11-12T06:19:18.667Z,71.35
2018-11-12T06:22:22.270Z,71.64
2018-11-12T06:25:30.238Z,71.54
2018-11-12T06:28:33.798Z,71.76
2018-11-12T06:31:37.704Z,71.93
2018-11-12T06:34:41.279Z,72.25
2018-11-12T06:37:45.640Z,72.14
2018-11-12T06:40:49.224Z,72.24
2018-11-12T06:43:52.753Z,72.23
2018-11-12T06:46:56.391Z,72.52
2018-11-12T06:49:59.922Z,72.45
2018-11-12T06:53:03.926Z,72.53
2018-11-12T06:56:07.362Z,72.59
2018-11-12T06:59:10.910Z,72.61
2018-11-12T07:02:14.479Z,72.07
2018-11-12T07:05:18.354Z,71.89
2018-11-12T07:08:21.978Z,71.46
2018-11-12T07:11:25.539Z,71.45
2018-11-12T07:14:30.093Z,71.42
2018-11-12T07:17:33.571Z,71.43
2018-11-12T07:20:37.159Z,71.04
2018-11-12T07:23:40.703Z,70.77
2018-11-12T07:26:44.216Z,70.71
2018-11-12T07:29:48.430Z,70.25
2018-11-12T07:32:53.076Z,70.16
2018-11-12T07:35:56.589Z,69.93
2018-11-12T07:39:00.105Z,70.05
2018-11-12T07:42:03.774Z,69.69
2018-11-12T07:45:09.465Z,69.92
2018-11-12T07:48:13.104Z,69.62
2018-11-12T07:51:16.724Z,69.61
2018-11-12T07:54:20.214Z,69.90
2018-11-12T07:57:23.934Z,69.90
2018-11-12T08:00:30.960Z,69.91
2018-11-12T08:03:35.557Z,69.82
2018-11-12T08:06:39.076Z,69.66
2018-11-12T08:09:42.671Z,69.42
2018-11-12T08:12:46.694Z,69.13
2018-11-12T08:15:50.186Z,68.35
2018-11-12T08:18:53.731Z,68.09
2018-11-12T08:21:57.400Z,68.28
2018-11-12T08:25:02.070Z,67.11
2018-11-12T08:28:05.873Z,66.81
2018-11-12T08:31:09.376Z,66.58
2018-11-12T08:34:12.911Z,66.41
2018-11-12T08:37:16.522Z,67.03
2018-11-12T08:40:21.674Z,66.25
2018-11-12T08:43:25.189Z,66.18
2018-11-12T08:46:28.706Z,66.17
2018-11-12T08:49:33.327Z,66.13
2018-11-12T08:52:37.194Z,66.26
2018-11-12T08:55:40.768Z,66.80
2018-11-12T08:58:44.219Z,66.38
2018-11-12T09:01:47.863Z,66.39
2018-11-12T09:04:51.455Z,66.42
2018-11-12T09:07:56.389Z,66.33
2018-11-12T09:10:59.925Z,66.18
2018-11-12T09:14:03.430Z,66.28
2018-11-12T09:17:06.876Z,66.37
2018-11-12T09:20:13.009Z,66.56
2018-11-12T09:23:16.772Z,66.20
2018-11-12T09:26:20.246Z,66.90
2018-11-12T09:29:23.815Z,66.50
2018-11-12T09:32:27.424Z,66.71
2018-11-12T09:35:32.720Z,66.17
2018-11-12T09:38:36.256Z,66.54
2018-11-12T09:41:39.861Z,66.40
2018-11-12T09:44:43.525Z,66.35
2018-11-12T09:47:47.304Z,66.69
2018-11-12T09:50:50.753Z,66.63
2018-11-12T09:53:54.316Z,67.00
2018-11-12T09:56:57.801Z,66.40
2018-11-12T10:00:03.721Z,66.49
2018-11-12T10:03:13.118Z,66.56
2018-11-12T10:06:17.236Z,66.94
2018-11-12T10:09:21.019Z,67.33
2018-11-12T10:12:27.311Z,67.05
2018-11-12T10:15:30.137Z,66.74
2018-11-12T10:18:30.908Z,66.54
2018-11-12T10:21:34.401Z,66.25
2018-11-12T10:24:38.806Z,66.77
2018-11-12T10:27:42.366Z,66.45
2018-11-12T10:30:45.856Z,66.03
2018-11-12T10:33:49.383Z,65.93
2018-11-12T10:36:52.857Z,65.76
2018-11-12T10:39:56.322Z,66.11
2018-11-12T10:42:59.796Z,66.07
2018-11-12T10:46:03.385Z,66.08
2018-11-12T10:49:06.901Z,66.11
2018-11-12T10:52:11.339Z,66.13
2018-11-12T10:55:16.719Z,66.18
2018-11-12T10:58:20.126Z,66.20
2018-11-12T11:01:29.042Z,66.87
2018-11-12T11:04:32.507Z,66.06
2018-11-12T11:07:35.885Z,66.29
2018-11-12T11:10:39.454Z,66.58
2018-11-12T11:13:43.121Z,66.10
2018-11-12T11:16:46.917Z,66.39
2018-11-12T11:19:50.871Z,66.64
2018-11-12T11:22:54.392Z,66.04
2018-11-12T11:25:57.924Z,66.49
2018-11-12T11:29:01.346Z,66.17
2018-11-12T11:32:04.932Z,66.43
2018-11-12T11:35:09.507Z,66.36
2018-11-12T11:38:12.976Z,66.09
2018-11-12T11:41:16.755Z,66.09
2018-11-12T11:44:20.230Z,66.01
2018-11-12T11:47:23.765Z,65.68
2018-11-12T11:50:27.758Z,65.86
2018-11-12T11:53:31.096Z,65.28
2018-11-12T11:56:34.605Z,65.31
2018-11-12T11:59:37.991Z,65.44
2018-11-12T12:02:41.868Z,65.50
2018-11-12T12:05:45.470Z,64.75
2018-11-12T12:08:48.926Z,64.93
2018-11-12T12:11:52.303Z,64.64
2018-11-12T12:14:56.038Z,64.63
2018-11-12T12:18:02.802Z,65.18
2018-11-12T12:21:06.446Z,64.96
2018-11-12T12:24:10.460Z,65.21
2018-11-12T12:27:13.949Z,64.97
2018-11-12T12:30:25.218Z,64.80
2018-11-12T12:33:28.637Z,64.96
2018-11-12T12:36:32.122Z,64.84
2018-11-12T12:39:35.666Z,65.05
2018-11-12T12:42:39.591Z,64.62
2018-11-12T12:45:43.185Z,64.42
2018-11-12T12:48:46.401Z,64.37
2018-11-12T12:51:49.924Z,63.35
2018-11-12T12:54:53.336Z,62.43
2018-11-12T12:57:56.932Z,62.05
2018-11-12T13:01:00.341Z,61.70
2018-11-12T13:04:03.733Z,61.68
2018-11-12T13:07:08.239Z,61.73
2018-11-12T13:10:13.130Z,59.93
2018-11-12T13:13:16.555Z,60.01
2018-11-12T13:16:20.122Z,59.91
2018-11-12T13:19:23.520Z,59.79
2018-11-12T13:22:26.937Z,60.06
2018-11-12T13:25:30.836Z,59.85
2018-11-12T13:28:34.193Z,60.23
2018-11-12T13:31:37.713Z,60.38
2018-11-12T13:34:41.152Z,60.68
2018-11-12T13:37:44.594Z,61.72
2018-11-12T13:40:48.036Z,62.17
2018-11-12T13:43:51.586Z,62.18
2018-11-12T13:46:56.731Z,62.88
2018-11-12T13:50:00.147Z,63.65
2018-11-12T13:53:04.048Z,63.25
2018-11-12T13:56:08.112Z,63.19
2018-11-12T13:59:11.579Z,63.31
2018-11-12T14:02:15.230Z,63.57
2018-11-12T14:05:20.166Z,63.33
2018-11-12T14:08:23.669Z,63.01
2018-11-12T14:11:27.144Z,65.07
2018-11-12T14:14:30.635Z,63.44
2018-11-12T14:17:34.153Z,63.04
2018-11-12T14:20:37.799Z,63.65
2018-11-12T14:23:41.169Z,63.31
2018-11-12T14:26:44.770Z,63.06
2018-11-12T14:29:49.024Z,62.78
2018-11-12T14:32:52.509Z,63.05
2018-11-12T14:35:56.070Z,62.71
2018-11-12T14:39:00.090Z,63.11
2018-11-12T14:42:03.560Z,63.69
2018-11-12T14:45:12.765Z,63.10
2018-11-12T14:48:16.648Z,62.75
2018-11-12T14:51:20.430Z,63.06
2018-11-12T14:54:24.198Z,63.13
2018-11-12T14:57:27.860Z,63.39
2018-11-12T15:00:32.455Z,63.91
2018-11-12T15:03:35.950Z,63.88
2018-11-12T15:06:39.455Z,63.64
2018-11-12T15:09:43.246Z,64.14
2018-11-12T15:12:48.225Z,64.11
2018-11-12T15:15:52.151Z,64.25
2018-11-12T15:18:55.802Z,63.97
2018-11-12T15:21:59.510Z,64.47
2018-11-12T15:25:03.049Z,64.96
2018-11-12T15:28:06.567Z,64.78
2018-11-12T15:31:10.130Z,65.14
2018-11-12T15:34:13.769Z,65.18
2018-11-12T15:37:17.287Z,65.22
2018-11-12T15:40:21.545Z,65.44
2018-11-12T15:43:25.063Z,65.51
2018-11-12T15:46:28.552Z,65.76
2018-11-12T15:49:32.066Z,65.92
2018-11-12T15:52:35.531Z,66.59
2018-11-12T15:55:38.964Z,66.32
2018-11-12T15:58:42.411Z,66.69
2018-11-12T16:01:45.869Z,67.04
2018-11-12T16:04:49.338Z,67.18
2018-11-12T16:07:52.807Z,67.25
2018-11-12T16:10:56.275Z,67.32
2018-11-12T16:13:59.733Z,67.46
2018-11-12T16:17:03.587Z,67.44
2018-11-12T16:20:14.388Z,67.70
2018-11-12T16:23:18.311Z,67.96
2018-11-12T16:26:21.818Z,68.13
2018-11-12T16:29:25.281Z,68.22
2018-11-12T16:32:28.836Z,68.31
2018-11-12T16:35:32.250Z,68.54
2018-11-12T16:38:35.705Z,68.81
2018-11-12T16:41:39.994Z,68.82
2018-11-12T16:44:43.391Z,69.17
2018-11-12T16:47:47.032Z,69.23
2018-11-12T16:50:50.504Z,69.30
2018-11-12T16:53:53.921Z,69.74
2018-11-12T16:56:57.373Z,69.48
2018-11-12T17:00:02.096Z,69.00
2018-11-12T17:03:06.725Z,69.30
2018-11-12T17:06:10.337Z,69.04
2018-11-12T17:09:14.101Z,68.57
2018-11-12T17:12:17.755Z,68.54
2018-11-12T17:15:21.345Z,68.66
2018-11-12T17:18:25.913Z,68.67
2018-11-12T17:21:29.587Z,68.51
2018-11-12T17:24:33.281Z,68.76
2018-11-12T17:27:40.171Z,69.03
2018-11-12T17:30:43.914Z,69.43
2018-11-12T17:33:48.591Z,69.40
2018-11-12T17:36:52.104Z,69.99
2018-11-12T17:39:55.699Z,70.60
2018-11-12T17:42:59.359Z,70.84
2018-11-12T17:46:02.908Z,70.46
2018-11-12T17:49:07.507Z,72.01
2018-11-12T17:52:11.457Z,72.14
2018-11-12T17:55:19.972Z,72.48
2018-11-12T17:58:33.595Z,72.76
2018-11-12T18:01:37.396Z,72.62
2018-11-12T18:04:41.828Z,73.44
2018-11-12T18:07:45.614Z,73.61
2018-11-12T18:10:49.067Z,73.56
2018-11-12T18:13:52.747Z,73.59
2018-11-12T18:16:56.378Z,74.00
2018-11-12T18:20:00.697Z,74.25
2018-11-12T18:23:07.689Z,73.65
2018-11-12T18:26:11.410Z,74.55
2018-11-12T18:29:15.052Z,74.47
2018-11-12T18:32:18.623Z,74.59
2018-11-12T18:35:22.308Z,74.45
2018-11-12T18:38:26.849Z,74.43
2018-11-12T18:41:30.559Z,74.62
2018-11-12T18:44:34.153Z,74.87
2018-11-12T18:47:37.819Z,74.94
2018-11-12T18:50:41.464Z,74.95
2018-11-12T18:53:45.126Z,75.24
2018-11-12T18:56:48.774Z,75.46
2018-11-12T18:59:52.316Z,75.56
2018-11-12T19:02:56.181Z,75.39
2018-11-12T19:05:59.635Z,75.55
2018-11-12T19:09:03.288Z,75.16
2018-11-12T19:12:06.988Z,76.23
2018-11-12T19:15:13.211Z,76.33
2018-11-12T19:18:16.847Z,76.41
2018-11-12T19:21:20.509Z,76.61
2018-11-12T19:24:23.924Z,77.21
2018-11-12T19:27:27.485Z,77.45
2018-11-12T19:30:31.294Z,77.42
2018-11-12T19:33:34.812Z,77.62
2018-11-12T19:36:38.504Z,78.13
2018-11-12T19:39:42.151Z,78.12
2018-11-12T19:42:46.715Z,78.38
2018-11-12T19:45:50.243Z,78.64
2018-11-12T19:48:54.867Z,78.37
2018-11-12T19:51:58.718Z,77.53
2018-11-12T19:55:02.239Z,78.37
2018-11-12T19:58:06.113Z,78.01
2018-11-12T20:01:09.985Z,77.83
2018-11-12T20:04:13.493Z,78.24
2018-11-12T20:07:17.096Z,78.35
2018-11-12T20:10:21.656Z,78.64
2018-11-12T20:13:25.597Z,78.46
2018-11-12T20:16:31.251Z,79.34
2018-11-12T20:19:34.947Z,77.98
2018-11-12T20:22:38.705Z,79.13
2018-11-12T20:25:42.278Z,78.81
2018-11-12T20:28:46.063Z,79.33
2018-11-12T20:31:49.663Z,79.10
2018-11-12T20:34:53.116Z,79.28
2018-11-12T20:37:57.118Z,79.94
2018-11-12T20:41:00.820Z,79.79
2018-11-12T20:44:04.707Z,79.83
2018-11-12T20:47:08.638Z,79.65
2018-11-12T20:50:13.916Z,80.12
2018-11-12T20:53:17.400Z,80.21
2018-11-12T20:56:20.982Z,80.10
2018-11-12T20:59:24.767Z,79.94
2018-11-12T21:02:28.253Z,80.50
2018-11-12T21:05:32.024Z,80.60
2018-11-12T21:08:36.456Z,79.94
2018-11-12T21:11:40.177Z,80.58
2018-11-12T21:14:43.767Z,80.15
2018-11-12T21:17:47.466Z,79.90
2018-11-12T21:20:50.992Z,80.72
2018-11-12T21:23:54.580Z,81.85
2018-11-12T21:26:58.249Z,81.43
2018-11-12T21:30:01.953Z,80.52
2018-11-12T21:33:06.616Z,79.97
2018-11-12T21:36:10.184Z,80.91
2018-11-12T21:39:14.770Z,80.98
2018-11-12T21:42:18.282Z,80.80
2018-11-12T21:45:24.277Z,80.90
2018-11-12T21:48:27.878Z,80.82
2018-11-12T21:51:31.619Z,80.21
2018-11-12T21:54:35.143Z,79.68
2018-11-12T21:57:38.971Z,80.52
2018-11-12T22:00:42.439Z,80.55
2018-11-12T22:03:45.996Z,80.67
2018-11-12T22:06:49.477Z,80.86
2018-11-12T22:09:52.973Z,80.24
2018-11-12T22:12:56.677Z,80.69
2018-11-12T22:16:00.345Z,80.93
2018-11-12T22:19:03.916Z,80.83
2018-11-12T22:22:07.429Z,80.31
2018-11-12T22:25:18.339Z,80.24
2018-11-12T22:28:21.960Z,80.98
2018-11-12T22:31:25.461Z,80.91
2018-11-12T22:34:28.997Z,81.08
2018-11-12T22:37:32.549Z,80.95
2018-11-12T22:40:36.048Z,81.67
2018-11-12T22:43:39.651Z,81.02
2018-11-12T22:46:43.189Z,81.78
2018-11-12T22:49:46.712Z,83.53
2018-11-12T22:52:50.225Z,84.21
2018-11-12T22:55:53.692Z,86.98
2018-11-12T22:58:57.270Z,88.13
2018-11-12T23:02:00.687Z,89.85
2018-11-12T23:05:04.745Z,89.00
2018-11-12T23:08:08.248Z,89.92
2018-11-12T23:11:11.720Z,89.76
2018-11-12T23:14:15.968Z,91.07
2018-11-12T23:17:19.507Z,91.73
2018-11-12T23:20:24.306Z,91.29
2018-11-12T23:23:27.773Z,91.00
2018-11-12T23:26:31.311Z,90.36
2018-11-12T23:29:34.754Z,89.91
2018-11-12T23:32:38.209Z,90.18
2018-11-12T23:35:41.659Z,92.31
2018-11-12T23:38:45.057Z,93.38
2018-11-12T23:41:48.754Z,94.26
2018-11-12T23:44:52.238Z,93.64
2018-11-12T23:47:55.755Z,94.37
2018-11-12T23:50:59.273Z,94.39
2018-11-12T23:54:02.686Z,94.65
2018-11-12T23:57:06.254Z,96.53
